| time (UTC) | temp C | wind direction | speed KPH | gust KPH | rain 1hr cm | rain 24hr cm | rain mn cm | humidity % | barometer mb |
| 20260507091115 | 10 | 0.0 | 0.0 | 0.00 | 0.66 | 0.05 | 59 | 1010.8 | |
| 20260507090116 | 10 | 0.0 | 1.6 | 0.00 | 0.66 | 0.05 | 60 | 1010.7 | |
| 20260507085116 | 10 | 0.0 | 0.0 | 0.00 | 0.66 | 0.05 | 60 | 1010.8 | |
| 20260507084115 | 10 | 0.0 | 1.6 | 0.00 | 0.66 | 0.05 | 61 | 1010.7 | |
| 20260507083115 | 10 | 0.0 | 1.6 | 0.00 | 0.66 | 0.05 | 61 | 1010.7 | |
| 20260507082115 | 10 | 293 | 1.6 | 1.6 | 0.00 | 0.66 | 0.05 | 60 | 1010.6 |
| 20260507081115 | 10 | 248 | 1.6 | 3.2 | 0.00 | 0.66 | 0.05 | 61 | 1010.7 |
| 20260507080136 | 10 | 315 | 1.6 | 3.2 | 0.00 | 0.66 | 0.05 | 64 | 1010.7 |
| 20260507075116 | 10 | 293 | 1.6 | 3.2 | 0.00 | 0.66 | 0.05 | 65 | 1010.7 |
| 20260507074116 | 11 | 0.0 | 1.6 | 0.00 | 0.66 | 0.05 | 65 | 1010.6 | |
| 20260507073136 | 11 | 293 | 1.6 | 3.2 | 0.00 | 0.66 | 0.05 | 68 | 1010.7 |
| 20260507072136 | 11 | 0.0 | 0.0 | 0.00 | 0.66 | 0.05 | 70 | 1010.7 | |
| 20260507071136 | 11 | 0.0 | 0.0 | 0.00 | 0.66 | 0.05 | 70 | 1010.9 | |
| 20260507070116 | 11 | 0.0 | 0.0 | 0.00 | 0.66 | 0.05 | 71 | 1010.8 | |
| 20260507065116 | 11 | 135 | 1.6 | 1.6 | 0.00 | 0.66 | 0.05 | 73 | 1010.8 |
| 20260507064116 | 11 | 0.0 | 3.2 | 0.00 | 0.66 | 0.05 | 73 | 1010.9 | |
| 20260507063116 | 11 | 0.0 | 1.6 | 0.00 | 0.66 | 0.05 | 74 | 1010.7 | |
| 20260507062116 | 11 | 315 | 1.6 | 3.2 | 0.00 | 0.66 | 0.05 | 76 | 1010.8 |
| 20260507061116 | 11 | 0.0 | 1.6 | 0.00 | 0.66 | 0.05 | 76 | 1010.8 | |
| 20260507060116 | 11 | 0.0 | 0.0 | 0.00 | 0.66 | 0.05 | 76 | 1010.7 | |
| 20260507055115 | 11 | 293 | 1.6 | 1.6 | 0.00 | 0.66 | 0.05 | 76 | 1010.5 |
| 20260507054136 | 11 | 0.0 | 0.0 | 0.00 | 0.66 | 0.05 | 77 | 1010.5 | |
| 20260507053116 | 11 | 315 | 1.6 | 3.2 | 0.00 | 0.66 | 0.05 | 78 | 1010.6 |
| 20260507052136 | 11 | 0.0 | 0.0 | 0.00 | 0.66 | 0.05 | 80 | 1010.5 | |
| 20260507051116 | 11 | 0.0 | 0.0 | 0.00 | 0.66 | 0.05 | 80 | 1010.3 | |
| 20260507050116 | 11 | 0.0 | 0.0 | 0.05 | 0.66 | 0.05 | 82 | 1010.7 | |
| 20260507045115 | 11 | 0.0 | 0.0 | 0.05 | 0.66 | 0.05 | 82 | 1010.4 | |
| 20260507044116 | 11 | 0.0 | 0.0 | 0.05 | 0.66 | 0.05 | 80 | 1010.3 | |
| 20260507043116 | 12 | 315 | 1.6 | 3.2 | 0.05 | 0.66 | 0.05 | 79 | 1010.7 |
| 20260507042116 | 12 | 0.0 | 1.6 | 0.05 | 0.66 | 0.05 | 78 | 1010.6 | |
| 20260507041116 | 12 | 315 | 1.6 | 3.2 | 0.05 | 0.66 | 0.05 | 75 | 1010.6 |
| 20260507040116 | 12 | 0.0 | 0.0 | 0.00 | 0.61 | 0.00 | 73 | 1010.5 | |
| 20260507035136 | 12 | 315 | 1.6 | 3.2 | 0.00 | 0.61 | 0.61 | 73 | 1010.5 |
| 20260507034115 | 13 | 293 | 3.2 | 4.8 | 0.00 | 0.61 | 0.61 | 72 | 1010.4 |
| 20260507033115 | 13 | 293 | 4.8 | 6.4 | 0.00 | 0.61 | 0.61 | 72 | 1010.5 |
| 20260507032115 | 13 | 248 | 1.6 | 3.2 | 0.00 | 0.61 | 0.61 | 73 | 1010.6 |
| 20260507031115 | 13 | 293 | 3.2 | 6.4 | 0.00 | 0.61 | 0.61 | 73 | 1010.6 |
| 20260507030116 | 13 | 293 | 1.6 | 3.2 | 0.00 | 0.61 | 0.61 | 74 | 1010.1 |
| 20260507025116 | 13 | 248 | 1.6 | 4.8 | 0.00 | 0.61 | 0.61 | 74 | 1010.4 |
| 20260507024116 | 13 | 293 | 4.8 | 6.4 | 0.00 | 0.61 | 0.61 | 74 | 1010.2 |
| 20260507023115 | 13 | 270 | 1.6 | 3.2 | 0.00 | 0.61 | 0.61 | 74 | 1010.1 |
| 20260507022116 | 13 | 315 | 1.6 | 3.2 | 0.00 | 0.61 | 0.61 | 75 | 1010.4 |
| 20260507021116 | 13 | 315 | 4.8 | 6.4 | 0.00 | 0.61 | 0.61 | 75 | 1010.0 |
| 20260507020116 | 14 | 248 | 4.8 | 9.7 | 0.00 | 0.61 | 0.61 | 76 | 1010.0 |
| 20260507015115 | 14 | 293 | 1.6 | 3.2 | 0.00 | 0.61 | 0.61 | 76 | 1010.2 |
| 20260507014136 | 14 | 270 | 1.6 | 3.2 | 0.00 | 0.61 | 0.61 | 76 | 1010.2 |
| 20260507013115 | 15 | 315 | 4.8 | 6.4 | 0.00 | 0.61 | 0.61 | 75 | 1009.8 |
| 20260507012135 | 15 | 293 | 4.8 | 6.4 | 0.00 | 0.61 | 0.61 | 75 | 1010.0 |
| 20260507010116 | 15 | 293 | 1.6 | 1.6 | 0.00 | 0.61 | 0.61 | 74 | 1010.0 |
| 20260507005115 | 15 | 293 | 3.2 | 6.4 | 0.00 | 0.61 | 0.61 | 73 | 1009.6 |
| 20260507004156 | 15 | 293 | 6.4 | 8.0 | 0.00 | 0.61 | 0.61 | 73 | 1009.6 |
| 20260507003116 | 16 | 293 | 4.8 | 8.0 | 0.00 | 0.61 | 0.61 | 73 | 1009.5 |
| 20260507002116 | 16 | 248 | 3.2 | 4.8 | 0.00 | 0.61 | 0.61 | 72 | 1009.3 |
| 20260507001116 | 16 | 270 | 3.2 | 4.8 | 0.00 | 0.61 | 0.61 | 73 | 1009.2 |
| 20260507000116 | 16 | 293 | 3.2 | 8.0 | 0.00 | 0.61 | 0.61 | 73 | 1008.8 |
| 20260506235116 | 16 | 293 | 4.8 | 6.4 | 0.00 | 0.61 | 0.61 | 72 | 1008.5 |
| 20260506234115 | 16 | 293 | 4.8 | 6.4 | 0.00 | 0.61 | 0.61 | 72 | 1008.1 |
| 20260506233115 | 17 | 293 | 11.3 | 14.5 | 0.00 | 0.61 | 0.61 | 72 | 1008.1 |
| 20260506232136 | 17 | 293 | 3.2 | 9.7 | 0.00 | 0.61 | 0.61 | 75 | 1008.0 |
| 20260506231115 | 17 | 293 | 4.8 | 9.7 | 0.00 | 0.61 | 0.61 | 74 | 1007.9 |
| 20260506230116 | 17 | 315 | 6.4 | 11.3 | 0.00 | 0.61 | 0.61 | 74 | 1007.9 |
| 20260506225115 | 17 | 338 | 4.8 | 6.4 | 0.00 | 0.61 | 0.61 | 74 | 1007.9 |
| 20260506224116 | 18 | 293 | 8.0 | 9.7 | 0.00 | 0.61 | 0.61 | 73 | 1007.8 |
| 20260506223116 | 18 | 293 | 6.4 | 9.7 | 0.00 | 0.61 | 0.61 | 76 | 1007.6 |
| 20260506222116 | 18 | 270 | 6.4 | 8.0 | 0.00 | 0.61 | 0.61 | 79 | 1007.3 |
| 20260506221116 | 18 | 248 | 3.2 | 3.2 | 0.00 | 0.61 | 0.61 | 81 | 1007.3 |
| 20260506220116 | 18 | 248 | 1.6 | 4.8 | 0.00 | 0.61 | 0.61 | 82 | 1007.2 |
| 20260506215115 | 18 | 248 | 4.8 | 6.4 | 0.00 | 0.61 | 0.61 | 82 | 1007.1 |
| 20260506214116 | 18 | 248 | 4.8 | 6.4 | 0.00 | 0.61 | 0.61 | 81 | 1007.2 |
| 20260506213116 | 18 | 248 | 4.8 | 6.4 | 0.00 | 0.61 | 0.61 | 79 | 1006.9 |
| 20260506212116 | 19 | 248 | 3.2 | 6.4 | 0.00 | 0.61 | 0.61 | 77 | 1006.6 |
| 20260506211115 | 19 | 0.0 | 0.0 | 0.00 | 0.61 | 0.61 | 78 | 1006.5 | |
| 20260506210135 | 19 | 248 | 4.8 | 6.4 | 0.00 | 0.61 | 0.61 | 76 | 1006.3 |
| 20260506205116 | 19 | 248 | 4.8 | 4.8 | 0.00 | 0.61 | 0.61 | 76 | 1006.4 |
| 20260506204116 | 20 | 248 | 3.2 | 4.8 | 0.00 | 0.61 | 0.61 | 77 | 1006.3 |
| 20260506203115 | 20 | 293 | 3.2 | 3.2 | 0.00 | 0.61 | 0.61 | 77 | 1006.2 |
| 20260506202116 | 20 | 248 | 3.2 | 4.8 | 0.00 | 0.61 | 0.61 | 76 | 1006.3 |
| 20260506201156 | 20 | 248 | 4.8 | 8.0 | 0.00 | 0.61 | 0.61 | 74 | 1006.2 |
| 20260506200116 | 20 | 293 | 3.2 | 9.7 | 0.00 | 0.61 | 0.61 | 76 | 1006.2 |
| 20260506195116 | 20 | 248 | 3.2 | 4.8 | 0.00 | 0.61 | 0.61 | 76 | 1006.2 |
| 20260506194116 | 20 | 248 | 3.2 | 4.8 | 0.00 | 0.61 | 0.61 | 79 | 1006.4 |
| 20260506193116 | 19 | 270 | 3.2 | 6.4 | 0.00 | 0.61 | 0.61 | 80 | 1006.3 |
| 20260506192136 | 18 | 270 | 4.8 | 4.8 | 0.00 | 0.61 | 0.61 | 81 | 1006.5 |
| 20260506191115 | 18 | 203 | 3.2 | 8.0 | 0.00 | 0.61 | 0.61 | 82 | 1006.5 |
| 20260506190116 | 18 | 0.0 | 1.6 | 0.00 | 0.61 | 0.61 | 82 | 1006.6 | |
| 20260506185116 | 18 | 180 | 1.6 | 6.4 | 0.00 | 0.61 | 0.61 | 82 | 1006.7 |
| 20260506184116 | 18 | 0.0 | 0.0 | 0.00 | 0.61 | 0.61 | 82 | 1006.7 | |
| 20260506183115 | 18 | 0.0 | 0.0 | 0.00 | 0.61 | 0.61 | 83 | 1006.7 | |
| 20260506182116 | 18 | 0.0 | 0.0 | 0.00 | 0.61 | 0.61 | 83 | 1006.6 | |
| 20260506181116 | 18 | 113 | 1.6 | 1.6 | 0.00 | 0.61 | 0.61 | 83 | 1006.6 |
| 20260506180116 | 18 | 0.0 | 0.0 | 0.00 | 0.61 | 0.61 | 84 | 1006.6 | |
| 20260506175136 | 17 | 0.0 | 1.6 | 0.00 | 0.61 | 0.61 | 84 | 1006.7 | |
| 20260506174136 | 17 | 135 | 1.6 | 3.2 | 0.00 | 0.61 | 0.61 | 83 | 1006.6 |
| 20260506173135 | 18 | 158 | 3.2 | 6.4 | 0.00 | 0.61 | 0.61 | 83 | 1006.6 |
| 20260506172136 | 17 | 0.0 | 0.0 | 0.00 | 0.61 | 0.61 | 85 | 1006.7 | |
| 20260506171136 | 17 | 0.0 | 1.6 | 0.00 | 0.61 | 0.61 | 85 | 1006.7 | |
| 20260506170116 | 17 | 0.0 | 0.0 | 0.00 | 0.61 | 0.61 | 86 | 1006.8 | |
| 20260506165136 | 17 | 0.0 | 1.6 | 0.00 | 0.61 | 0.61 | 86 | 1006.8 | |
| 20260506164116 | 17 | 0.0 | 0.0 | 0.00 | 0.61 | 0.61 | 86 | 1006.7 | |
| 20260506163136 | 17 | 180 | 3.2 | 8.0 | 0.00 | 0.61 | 0.61 | 86 | 1006.7 |
| 20260506162116 | 17 | 338 | 1.6 | 1.6 | 0.00 | 0.61 | 0.61 | 86 | 1006.7 |
| 20260506161115 | 17 | 225 | 4.8 | 6.4 | 0.00 | 0.61 | 0.61 | 86 | 1006.4 |
| 20260506160116 | 17 | 225 | 4.8 | 12.9 | 0.00 | 0.61 | 0.61 | 86 | 1006.5 |
| 20260506155116 | 17 | 203 | 1.6 | 3.2 | 0.00 | 0.61 | 0.61 | 88 | 1006.4 |
| 20260506154116 | 16 | 135 | 3.2 | 6.4 | 0.08 | 0.61 | 0.61 | 88 | 1006.6 |
| 20260506153116 | 16 | 248 | 3.2 | 6.4 | 0.13 | 0.61 | 0.61 | 88 | 1006.7 |
| 20260506152116 | 16 | 0.0 | 0.0 | 0.20 | 0.61 | 0.61 | 89 | 1006.8 | |
| 20260506151116 | 16 | 248 | 3.2 | 4.8 | 0.25 | 0.61 | 0.61 | 89 | 1006.1 |
| 20260506150116 | 16 | 225 | 3.2 | 8.0 | 0.33 | 0.61 | 0.61 | 90 | 1006.2 |
| 20260506145116 | 15 | 158 | 1.6 | 1.6 | 0.41 | 0.61 | 0.61 | 90 | 1006.5 |
| 20260506144116 | 15 | 225 | 3.2 | 4.8 | 0.33 | 0.53 | 0.53 | 89 | 1006.8 |
| 20260506143116 | 15 | 0.0 | 1.6 | 0.28 | 0.48 | 0.48 | 89 | 1007.1 | |
| 20260506142116 | 15 | 248 | 3.2 | 4.8 | 0.25 | 0.41 | 0.41 | 89 | 1007.3 |
| 20260506141116 | 15 | 248 | 1.6 | 3.2 | 0.23 | 0.36 | 0.36 | 88 | 1007.4 |
| 20260506140116 | 15 | 0.0 | 1.6 | 0.15 | 0.28 | 0.28 | 88 | 1007.3 | |
| 20260506135116 | 16 | 248 | 1.6 | 3.2 | 0.10 | 0.20 | 0.20 | 87 | 1007.2 |
| 20260506134116 | 16 | 203 | 4.8 | 9.7 | 0.10 | 0.20 | 0.20 | 87 | 1006.9 |
| 20260506133116 | 15 | 158 | 3.2 | 8.0 | 0.10 | 0.20 | 0.20 | 88 | 1006.9 |
| 20260506132116 | 15 | 225 | 3.2 | 4.8 | 0.05 | 0.15 | 0.15 | 87 | 1006.9 |
| 20260506131116 | 15 | 270 | 3.2 | 4.8 | 0.03 | 0.13 | 0.13 | 86 | 1006.9 |
| 20260506130156 | 15 | 225 | 1.6 | 3.2 | 0.05 | 0.13 | 0.13 | 85 | 1007.1 |
| 20260506125116 | 16 | 225 | 1.6 | 3.2 | 0.03 | 0.10 | 0.10 | 85 | 1007.0 |
| 20260506124116 | 16 | 0.0 | 3.2 | 0.05 | 0.10 | 0.10 | 84 | 1007.1 | |
| 20260506123116 | 16 | 135 | 1.6 | 4.8 | 0.08 | 0.10 | 0.10 | 84 | 1007.2 |
| 20260506122116 | 16 | 248 | 1.6 | 1.6 | 0.08 | 0.10 | 0.10 | 83 | 1007.4 |
| 20260506121116 | 16 | 158 | 1.6 | 3.2 | 0.10 | 0.10 | 0.10 | 83 | 1007.3 |
| 20260506120116 | 16 | 0.0 | 1.6 | 0.08 | 0.08 | 0.08 | 82 | 1007.4 | |
| 20260506115116 | 16 | 0.0 | 1.6 | 0.08 | 0.08 | 0.08 | 80 | 1007.5 | |
| 20260506114136 | 16 | 135 | 1.6 | 4.8 | 0.05 | 0.05 | 0.05 | 79 | 1007.5 |
| 20260506113116 | 16 | 203 | 1.6 | 3.2 | 0.03 | 0.03 | 0.03 | 77 | 1007.5 |
| 20260506112116 | 17 | 203 | 3.2 | 6.4 | 0.03 | 0.03 | 0.03 | 74 | 1007.1 |
| 20260506111116 | 17 | 158 | 4.8 | 8.0 | 0.00 | 0.00 | 0.00 | 71 | 1006.9 |
| 20260506110116 | 17 | 135 | 4.8 | 14.5 | 0.00 | 0.00 | 0.00 | 70 | 1006.6 |
| 20260506105116 | 18 | 270 | 4.8 | 6.4 | 0.00 | 0.00 | 0.00 | 67 | 1006.5 |
| 20260506104116 | 18 | 68 | 3.2 | 4.8 | 0.00 | 0.00 | 0.00 | 66 | 1006.3 |
| 20260506103116 | 18 | 203 | 6.4 | 14.5 | 0.00 | 0.00 | 0.00 | 64 | 1006.3 |
| 20260506102156 | 18 | 203 | 4.8 | 11.3 | 0.00 | 0.00 | 0.00 | 63 | 1006.3 |
| 20260506101116 | 18 | 225 | 4.8 | 22.5 | 0.00 | 0.00 | 0.00 | 63 | 1006.2 |
| 20260506100116 | 18 | 203 | 4.8 | 8.0 | 0.00 | 0.00 | 0.00 | 62 | 1006.1 |
| 20260506095116 | 18 | 225 | 8.0 | 12.9 | 0.00 | 0.00 | 0.00 | 62 | 1006.1 |
| 20260506094116 | 18 | 225 | 9.7 | 12.9 | 0.00 | 0.00 | 0.00 | 61 | 1006.2 |
| 20260506093136 | 18 | 135 | 4.8 | 9.7 | 0.00 | 0.00 | 0.00 | 61 | 1005.8 |
| 20260506092116 | 18 | 203 | 6.4 | 11.3 | 0.00 | 0.00 | 0.00 | 60 | 1006.0 |